createdAt,value
2023-05-15T00:01:43.388Z,0.50
2023-05-15T00:04:16.853Z,0.70
2023-05-15T00:06:44.632Z,0.60
2023-05-15T00:09:18.841Z,0.80
2023-05-15T00:11:52.268Z,0.90
2023-05-15T00:14:25.656Z,0.80
2023-05-15T00:17:03.061Z,0.90
2023-05-15T00:19:36.949Z,0.60
2023-05-15T00:21:59.523Z,0.60
2023-05-15T00:24:23.328Z,0.50
2023-05-15T00:26:47.367Z,0.90
2023-05-15T00:29:21.034Z,0.50
2023-05-15T00:31:55.121Z,0.50
2023-05-15T00:34:30.045Z,0.60
2023-05-15T00:37:04.702Z,0.40
2023-05-15T00:39:38.906Z,0.50
2023-05-15T00:42:03.622Z,0.60
2023-05-15T00:44:28.876Z,0.40
2023-05-15T00:46:52.748Z,0.60
2023-05-15T00:49:28.686Z,1.00
2023-05-15T00:51:54.322Z,0.60
2023-05-15T00:54:20.086Z,0.60
2023-05-15T00:56:55.938Z,0.50
2023-05-15T00:59:19.468Z,0.50
2023-05-15T01:01:53.507Z,0.50
2023-05-15T01:04:27.380Z,0.50
2023-05-15T01:06:58.412Z,0.60
2023-05-15T01:09:27.132Z,0.60
2023-05-15T01:12:02.554Z,0.60
2023-05-15T01:14:28.646Z,0.60
2023-05-15T01:17:02.694Z,0.50
2023-05-15T01:19:37.017Z,0.70
2023-05-15T01:22:45.179Z,0.50
2023-05-15T01:25:56.001Z,0.60
2023-05-15T01:28:34.334Z,0.40
2023-05-15T01:31:12.575Z,0.50
2023-05-15T01:33:51.282Z,0.40
2023-05-15T01:36:30.385Z,0.30
2023-05-15T01:39:06.854Z,0.40
2023-05-15T01:41:45.752Z,0.40
2023-05-15T01:44:22.953Z,0.50
2023-05-15T01:46:53.338Z,0.50
2023-05-15T01:49:30.956Z,0.40
2023-05-15T01:51:58.388Z,0.50
2023-05-15T01:54:33.316Z,0.30
2023-05-15T01:57:00.933Z,0.40
2023-05-15T01:59:26.653Z,0.50
2023-05-15T02:02:02.390Z,0.30
2023-05-15T02:04:36.735Z,0.30
2023-05-15T02:07:16.442Z,0.30
2023-05-15T02:09:41.803Z,0.50
2023-05-15T02:12:19.791Z,0.40
2023-05-15T02:14:58.611Z,0.40
2023-05-15T02:17:32.620Z,0.70
2023-05-15T02:20:11.591Z,0.40
2023-05-15T02:22:38.201Z,0.50
2023-05-15T02:24:53.417Z,0.50
2023-05-15T02:27:17.408Z,0.30
2023-05-15T02:29:58.812Z,0.40
2023-05-15T02:32:43.961Z,0.40
2023-05-15T02:35:22.694Z,0.40
2023-05-15T02:38:00.137Z,0.40
2023-05-15T02:40:24.582Z,0.40
2023-05-15T02:42:53.228Z,0.40
2023-05-15T02:45:23.156Z,0.30
2023-05-15T02:47:47.072Z,0.40
2023-05-15T02:50:21.850Z,0.60
2023-05-15T02:52:50.131Z,0.40
2023-05-15T02:55:24.775Z,0.30
2023-05-15T02:57:53.545Z,0.40
2023-05-15T03:00:52.466Z,0.40
2023-05-15T03:02:47.706Z,0.40
2023-05-15T03:05:22.265Z,0.40
2023-05-15T03:07:45.502Z,0.70
2023-05-15T03:10:12.035Z,0.50
2023-05-15T03:13:05.877Z,0.50
2023-05-15T03:15:39.529Z,0.40
2023-05-15T03:21:02.712Z,0.60
2023-05-15T03:23:34.596Z,0.50
2023-05-15T03:26:00.768Z,0.60
2023-05-15T03:28:33.553Z,0.50
2023-05-15T03:31:00.720Z,0.40
2023-05-15T03:33:35.071Z,0.50
2023-05-15T03:35:58.702Z,0.50
2023-05-15T03:38:32.495Z,0.50
2023-05-15T03:40:56.130Z,0.60
2023-05-15T03:43:20.378Z,0.40
2023-05-15T03:45:45.508Z,0.40
2023-05-15T03:48:08.577Z,0.50
2023-05-15T03:50:43.781Z,0.90
2023-05-15T03:53:17.140Z,0.60
2023-05-15T03:55:41.936Z,0.50
2023-05-15T03:57:59.082Z,0.50
2023-05-15T04:00:32.393Z,0.60
2023-05-15T04:03:05.853Z,0.60
2023-05-15T04:08:13.589Z,0.50
2023-05-15T04:10:39.013Z,0.50
2023-05-15T04:13:05.189Z,0.60
2023-05-15T04:15:32.962Z,0.40
2023-05-15T04:18:06.664Z,0.50
2023-05-15T04:20:34.898Z,0.50
2023-05-15T04:25:40.902Z,0.50
2023-05-15T04:28:16.229Z,0.60
2023-05-15T04:30:50.604Z,0.50
2023-05-15T04:33:25.069Z,0.60
2023-05-15T04:35:54.317Z,0.70
2023-05-15T04:38:10.715Z,0.50
2023-05-15T04:43:14.301Z,0.60
2023-05-15T04:45:38.749Z,0.50
2023-05-15T04:48:06.429Z,0.50
2023-05-15T04:50:39.909Z,0.50
2023-05-15T04:52:59.453Z,0.40
2023-05-15T04:55:33.812Z,0.60
2023-05-15T04:57:55.026Z,0.50
2023-05-15T05:00:30.488Z,0.40
2023-05-15T05:03:05.898Z,0.50
2023-05-15T05:05:32.530Z,0.50
2023-05-15T05:07:57.546Z,0.50
2023-05-15T05:10:31.754Z,0.60
2023-05-15T05:13:06.353Z,0.70
2023-05-15T05:15:29.093Z,0.50
2023-05-15T05:18:04.279Z,0.50
2023-05-15T05:20:37.843Z,0.40
2023-05-15T05:23:11.881Z,0.70
2023-05-15T05:25:45.848Z,0.60
2023-05-15T05:28:20.084Z,0.50
2023-05-15T05:30:54.776Z,0.60
2023-05-15T05:33:29.123Z,0.70
2023-05-15T05:35:52.943Z,0.50
2023-05-15T05:38:27.637Z,0.60
2023-05-15T05:41:02.490Z,0.50
2023-05-15T05:43:34.686Z,0.60
2023-05-15T05:45:57.512Z,0.70
2023-05-15T05:51:05.698Z,0.70
2023-05-15T05:53:40.058Z,0.50
2023-05-15T05:56:14.086Z,0.50
2023-05-15T05:58:48.676Z,0.80
2023-05-15T06:01:25.947Z,0.90
2023-05-15T06:03:59.792Z,0.60
2023-05-15T06:06:33.921Z,0.50
2023-05-15T06:09:00.726Z,0.70
2023-05-15T06:11:34.577Z,0.90
2023-05-15T06:14:09.555Z,0.60
2023-05-15T06:16:43.288Z,0.50
2023-05-15T06:19:18.344Z,0.60
2023-05-15T06:21:45.736Z,1.60
2023-05-15T06:24:08.503Z,0.80
2023-05-15T06:26:28.794Z,0.50
2023-05-15T06:29:03.855Z,0.40
2023-05-15T06:31:26.930Z,0.50
2023-05-15T06:34:00.792Z,0.50
2023-05-15T06:36:35.112Z,0.50
2023-05-15T06:39:11.983Z,0.70
2023-05-15T06:41:44.424Z,0.70
2023-05-15T06:44:17.932Z,0.60
2023-05-15T06:46:54.589Z,0.80
2023-05-15T06:49:28.692Z,0.40
2023-05-15T06:52:02.753Z,0.50
2023-05-15T06:54:25.826Z,0.60
2023-05-15T06:57:01.152Z,0.60
2023-05-15T06:59:36.955Z,0.40
2023-05-15T07:02:10.882Z,0.50
2023-05-15T07:04:45.571Z,0.90
2023-05-15T07:07:08.179Z,0.50
2023-05-15T07:09:42.326Z,0.40
2023-05-15T07:12:17.592Z,0.50
2023-05-15T07:14:52.016Z,0.40
2023-05-15T07:17:26.605Z,0.50
2023-05-15T07:19:54.071Z,0.40
2023-05-15T07:22:31.427Z,0.40
2023-05-15T07:25:09.102Z,0.50
2023-05-15T07:27:43.013Z,0.50
2023-05-15T07:30:21.274Z,0.80
2023-05-15T07:32:55.478Z,0.30
2023-05-15T07:35:29.201Z,0.30
2023-05-15T07:38:04.458Z,0.80
2023-05-15T07:40:31.302Z,0.60
2023-05-15T07:42:54.041Z,0.40
2023-05-15T07:45:28.676Z,0.40
2023-05-15T07:48:02.613Z,0.40
2023-05-15T07:50:38.081Z,0.40
2023-05-15T07:53:12.408Z,0.40
2023-05-15T07:55:47.734Z,0.50
2023-05-15T07:58:21.952Z,0.50
2023-05-15T08:00:57.653Z,0.40
2023-05-15T08:03:31.854Z,0.40
2023-05-15T08:06:06.077Z,0.40
2023-05-15T08:08:40.521Z,0.30
2023-05-15T08:11:14.418Z,0.60
2023-05-15T08:13:48.081Z,0.40
2023-05-15T08:16:22.015Z,0.40
2023-05-15T08:18:59.801Z,0.30
2023-05-15T08:21:26.253Z,0.40
2023-05-15T08:24:00.213Z,0.40
2023-05-15T08:26:34.229Z,0.70
2023-05-15T08:29:08.102Z,0.30
2023-05-15T08:31:41.705Z,0.30
2023-05-15T08:34:15.600Z,0.40
2023-05-15T08:36:42.338Z,0.50
2023-05-15T08:39:16.972Z,0.40
2023-05-15T08:41:56.416Z,0.30
2023-05-15T08:44:29.740Z,0.40
2023-05-15T08:47:04.742Z,0.30
2023-05-15T08:49:47.511Z,0.30
2023-05-15T08:52:22.238Z,0.30
2023-05-15T08:54:58.039Z,0.40
2023-05-15T08:57:33.072Z,0.30
2023-05-15T09:00:08.949Z,0.40
2023-05-15T09:02:35.722Z,0.40
2023-05-15T09:05:12.378Z,0.40
2023-05-15T09:07:48.290Z,0.40
2023-05-15T09:10:22.518Z,0.30
2023-05-15T09:12:53.882Z,0.30
2023-05-15T09:15:26.157Z,0.40
2023-05-15T09:18:01.551Z,3.00
2023-05-15T09:20:35.972Z,9.10
2023-05-15T09:23:03.520Z,7.50
2023-05-15T09:25:54.100Z,6.00
2023-05-15T09:28:39.759Z,7.30
2023-05-15T09:31:13.193Z,7.10
2023-05-15T09:33:41.903Z,7.10
2023-05-15T09:36:11.313Z,8.30
2023-05-15T09:38:50.566Z,6.90
2023-05-15T09:41:31.636Z,7.40
2023-05-15T09:44:04.974Z,9.30
2023-05-15T09:46:41.848Z,8.80
2023-05-15T09:49:17.083Z,9.00
2023-05-15T09:51:53.436Z,8.00
2023-05-15T09:54:31.359Z,8.00
2023-05-15T09:57:15.062Z,7.30
2023-05-15T09:59:53.012Z,7.10
2023-05-15T10:02:33.372Z,5.30
2023-05-15T10:05:15.189Z,7.40
2023-05-15T10:07:39.416Z,7.10
2023-05-15T10:10:03.350Z,6.70
2023-05-15T10:12:37.932Z,4.60
2023-05-15T10:15:14.817Z,5.50
2023-05-15T10:17:51.737Z,5.40
2023-05-15T10:20:27.448Z,5.50
2023-05-15T10:23:02.002Z,7.80
2023-05-15T10:25:42.361Z,12.30
2023-05-15T10:28:17.849Z,12.50
2023-05-15T10:30:42.885Z,17.60
2023-05-15T10:33:18.573Z,11.80
2023-05-15T10:35:54.532Z,13.70
2023-05-15T10:38:22.785Z,16.20
2023-05-15T10:40:47.885Z,13.60
2023-05-15T10:43:18.676Z,11.30
2023-05-15T10:45:43.085Z,14.80
2023-05-15T10:48:13.617Z,9.50
2023-05-15T10:50:39.792Z,8.60
2023-05-15T10:53:15.991Z,8.30
2023-05-15T10:55:51.776Z,7.80
2023-05-15T10:58:29.341Z,7.60
2023-05-15T11:01:04.390Z,7.20
2023-05-15T11:03:49.669Z,4.60
2023-05-15T11:06:19.070Z,6.10
2023-05-15T11:08:46.401Z,7.40
2023-05-15T11:11:10.790Z,6.50
2023-05-15T11:13:53.332Z,7.40
2023-05-15T11:17:02.683Z,7.60
2023-05-15T11:19:59.423Z,5.50
2023-05-15T11:22:39.860Z,8.20
2023-05-15T11:25:15.016Z,12.20
2023-05-15T11:27:49.689Z,13.40
2023-05-15T11:30:26.992Z,12.10
2023-05-15T11:33:04.967Z,12.50
2023-05-15T11:35:30.632Z,8.10
2023-05-15T11:38:05.952Z,8.90
2023-05-15T11:40:50.393Z,8.10
2023-05-15T11:43:29.037Z,10.40
2023-05-15T11:45:54.140Z,9.40
2023-05-15T11:48:40.543Z,6.50
2023-05-15T11:51:23.060Z,6.30
2023-05-15T11:53:58.150Z,6.30
2023-05-15T11:56:32.730Z,10.30
2023-05-15T11:59:07.532Z,6.60
2023-05-15T12:01:48.939Z,8.50
2023-05-15T12:04:24.745Z,7.90
2023-05-15T12:07:00.940Z,8.20
2023-05-15T12:09:37.416Z,5.90
2023-05-15T12:12:16.144Z,6.00
2023-05-15T12:14:49.970Z,8.60
2023-05-15T12:17:24.557Z,6.50
2023-05-15T12:19:49.769Z,6.50
2023-05-15T12:22:23.978Z,9.30
2023-05-15T12:24:48.873Z,6.80
2023-05-15T12:27:24.758Z,9.60
2023-05-15T12:29:59.434Z,8.60
2023-05-15T12:32:35.029Z,7.70
2023-05-15T12:35:11.365Z,7.10
2023-05-15T12:37:45.829Z,7.00
2023-05-15T12:40:24.233Z,7.60
2023-05-15T12:43:00.196Z,6.80
2023-05-15T12:48:05.601Z,10.00
2023-05-15T12:50:40.998Z,8.90
2023-05-15T12:53:06.235Z,9.70
2023-05-15T12:55:44.745Z,7.10
2023-05-15T12:58:20.774Z,7.20
2023-05-15T13:00:59.930Z,8.60
2023-05-15T13:03:35.497Z,8.50
2023-05-15T13:06:10.123Z,12.40
2023-05-15T13:08:44.253Z,9.30
2023-05-15T13:13:52.712Z,7.70
2023-05-15T13:16:28.079Z,7.30
2023-05-15T13:18:54.722Z,7.30
2023-05-15T13:21:17.668Z,6.40
2023-05-15T13:23:52.848Z,7.00
2023-05-15T13:26:26.476Z,9.10
2023-05-15T13:29:00.690Z,6.10
2023-05-15T13:31:35.888Z,7.70
2023-05-15T13:34:09.616Z,7.00
2023-05-15T13:36:32.523Z,5.90
2023-05-15T13:39:05.908Z,5.20
2023-05-15T13:41:32.863Z,6.60
2023-05-15T13:44:07.618Z,4.20
2023-05-15T13:46:42.144Z,4.50
2023-05-15T13:49:09.178Z,6.80
2023-05-15T13:51:43.322Z,5.60
2023-05-15T13:54:17.564Z,7.40
2023-05-15T13:56:45.544Z,7.40
2023-05-15T13:59:18.536Z,7.50
2023-05-15T14:01:41.686Z,8.10
2023-05-15T14:04:14.925Z,4.70
2023-05-15T14:06:49.827Z,5.90
2023-05-15T14:09:13.297Z,6.40
2023-05-15T14:11:46.731Z,8.70
2023-05-15T14:14:56.493Z,5.80
2023-05-15T14:17:09.220Z,6.40
2023-05-15T14:19:44.997Z,6.20
2023-05-15T14:22:18.559Z,7.80
2023-05-15T14:24:54.968Z,6.20
2023-05-15T14:27:31.119Z,6.10
2023-05-15T14:30:06.057Z,7.10
2023-05-15T14:32:33.648Z,7.60
2023-05-15T14:35:09.290Z,7.10
2023-05-15T14:37:44.347Z,4.90
2023-05-15T14:40:19.204Z,5.60
2023-05-15T14:42:52.180Z,5.00
2023-05-15T14:45:17.474Z,4.50
2023-05-15T14:47:39.848Z,5.70
2023-05-15T14:50:04.450Z,5.30
2023-05-15T14:52:38.122Z,4.90
2023-05-15T14:55:13.912Z,3.70
2023-05-15T14:57:50.447Z,5.40
2023-05-15T15:00:20.729Z,3.90
2023-05-15T15:02:47.673Z,4.90
2023-05-15T15:05:22.020Z,4.90
2023-05-15T15:08:10.115Z,6.90
2023-05-15T15:10:46.088Z,8.30
2023-05-15T15:13:18.860Z,4.30
2023-05-15T15:15:53.122Z,7.00
2023-05-15T15:18:26.847Z,7.40
2023-05-15T15:21:00.996Z,5.40
2023-05-15T15:23:35.080Z,5.90
2023-05-15T15:26:08.452Z,7.10
2023-05-15T15:28:43.411Z,6.20
2023-05-15T15:31:20.684Z,5.20
2023-05-15T15:33:55.159Z,7.20
2023-05-15T15:36:17.569Z,6.70
2023-05-15T15:38:52.264Z,6.80
2023-05-15T15:41:26.527Z,6.00
2023-05-15T15:43:59.661Z,6.70
2023-05-15T15:46:34.859Z,5.20
2023-05-15T15:49:09.090Z,6.10
2023-05-15T15:54:20.310Z,5.00
2023-05-15T15:56:54.884Z,4.70
2023-05-15T15:59:29.450Z,5.00
2023-05-15T16:01:54.973Z,5.30
2023-05-15T16:04:28.912Z,5.60
2023-05-15T16:07:02.304Z,5.10
2023-05-15T16:09:37.781Z,5.00
2023-05-15T16:12:12.472Z,7.10
2023-05-15T16:14:47.093Z,5.20
2023-05-15T16:17:22.138Z,5.90
2023-05-15T16:19:58.152Z,6.40
2023-05-15T16:22:32.898Z,5.10
2023-05-15T16:25:08.754Z,4.90
2023-05-15T16:27:42.311Z,5.90
2023-05-15T16:30:19.155Z,5.80
2023-05-15T16:33:04.746Z,4.50
2023-05-15T16:37:51.500Z,5.10
2023-05-15T16:40:28.417Z,6.80
2023-05-15T16:43:02.628Z,6.10
2023-05-15T16:48:05.833Z,4.60
2023-05-15T16:50:41.831Z,6.40
2023-05-15T16:53:16.616Z,4.20
2023-05-15T16:55:51.905Z,6.50
2023-05-15T16:58:24.980Z,7.20
2023-05-15T17:00:59.340Z,5.80
2023-05-15T17:03:34.201Z,6.20
2023-05-15T17:06:09.411Z,3.70
2023-05-15T17:08:43.801Z,4.00
2023-05-15T17:11:17.784Z,5.10
2023-05-15T17:13:51.831Z,6.60
2023-05-15T17:16:27.214Z,5.30
2023-05-15T17:19:01.295Z,3.70
2023-05-15T17:21:35.458Z,5.90
2023-05-15T17:24:09.889Z,5.60
2023-05-15T17:26:43.612Z,5.20
2023-05-15T17:29:25.949Z,4.60
2023-05-15T17:32:00.791Z,4.00
2023-05-15T17:34:34.330Z,4.40
2023-05-15T17:37:09.003Z,5.40
2023-05-15T17:39:43.536Z,4.30
2023-05-15T17:42:19.084Z,4.50
2023-05-15T17:44:53.652Z,4.00
2023-05-15T17:47:21.120Z,4.60
2023-05-15T17:49:54.041Z,5.30
2023-05-15T17:52:28.182Z,3.30
2023-05-15T17:55:02.961Z,4.20
2023-05-15T17:57:36.866Z,4.40
2023-05-15T18:00:13.475Z,3.90
2023-05-15T18:02:28.720Z,3.70
2023-05-15T18:05:03.493Z,4.50
2023-05-15T18:07:30.868Z,4.70
2023-05-15T18:10:04.872Z,4.00
2023-05-15T18:12:40.337Z,4.90
2023-05-15T18:15:15.386Z,4.10
2023-05-15T18:17:49.644Z,4.40
2023-05-15T18:20:13.450Z,3.70
2023-05-15T18:22:47.194Z,2.60
2023-05-15T18:25:21.207Z,4.90
2023-05-15T18:27:55.804Z,4.40
2023-05-15T18:30:30.165Z,4.50
2023-05-15T18:33:05.035Z,6.00
2023-05-15T18:35:40.541Z,6.20
2023-05-15T18:38:14.182Z,3.70
2023-05-15T18:40:51.862Z,4.90
2023-05-15T18:43:25.842Z,4.20
2023-05-15T18:46:04.251Z,4.60
2023-05-15T18:48:38.369Z,4.20
2023-05-15T18:51:02.779Z,5.10
2023-05-15T18:53:37.468Z,4.00
2023-05-15T18:56:12.502Z,5.00
2023-05-15T18:58:48.631Z,5.90
2023-05-15T19:01:21.914Z,6.30
2023-05-15T19:03:55.380Z,4.90
2023-05-15T19:06:29.854Z,6.60
2023-05-15T19:09:02.985Z,6.30
2023-05-15T19:11:30.128Z,4.50
2023-05-15T19:14:03.825Z,6.40
2023-05-15T19:16:38.590Z,4.20
2023-05-15T19:19:06.716Z,5.20
2023-05-15T19:21:43.315Z,5.20
2023-05-15T19:24:21.522Z,5.60
2023-05-15T19:26:44.859Z,5.30
2023-05-15T19:29:18.673Z,4.90
2023-05-15T19:31:46.861Z,5.40
2023-05-15T19:37:08.041Z,5.00
2023-05-15T19:39:35.059Z,5.10
2023-05-15T19:42:08.908Z,4.50
2023-05-15T19:44:35.760Z,6.90
2023-05-15T19:46:57.695Z,5.30
2023-05-15T19:49:33.579Z,4.90
2023-05-15T19:51:57.613Z,6.50
2023-05-15T19:54:23.448Z,4.50
2023-05-15T19:56:57.368Z,4.70
2023-05-15T19:59:31.842Z,5.40
2023-05-15T20:04:54.901Z,4.00
2023-05-15T20:07:30.897Z,3.90
2023-05-15T20:10:04.803Z,5.10
2023-05-15T20:12:28.748Z,4.90
2023-05-15T20:15:02.827Z,4.20
2023-05-15T20:17:36.888Z,3.30
2023-05-15T20:20:00.761Z,5.00
2023-05-15T20:22:35.947Z,4.10
2023-05-15T20:25:10.503Z,3.20
2023-05-15T20:27:44.700Z,3.90
2023-05-15T20:30:19.548Z,2.40
2023-05-15T20:32:53.188Z,2.70
2023-05-15T20:35:22.208Z,2.60
2023-05-15T20:37:55.228Z,2.90
2023-05-15T20:40:18.367Z,4.70
2023-05-15T20:42:53.477Z,2.80
2023-05-15T20:45:28.818Z,2.80
2023-05-15T20:48:02.839Z,1.90
2023-05-15T20:50:37.888Z,2.80
2023-05-15T20:53:10.903Z,2.60
2023-05-15T20:55:45.009Z,2.90
2023-05-15T20:58:18.658Z,3.50
2023-05-15T21:00:53.447Z,3.50
2023-05-15T21:03:16.019Z,3.90
2023-05-15T21:05:50.499Z,3.80
2023-05-15T21:08:23.448Z,4.30
2023-05-15T21:10:58.510Z,5.20
2023-05-15T21:13:33.025Z,4.20
2023-05-15T21:16:08.792Z,3.60
2023-05-15T21:18:43.504Z,3.90
2023-05-15T21:21:09.216Z,4.00
2023-05-15T21:23:42.994Z,5.50
2023-05-15T21:26:16.657Z,3.70
2023-05-15T21:28:50.665Z,5.40
2023-05-15T21:31:24.440Z,4.60
2023-05-15T21:33:57.793Z,4.10
2023-05-15T21:36:32.378Z,4.20
2023-05-15T21:38:59.801Z,3.40
2023-05-15T21:41:35.592Z,4.20
2023-05-15T21:44:09.220Z,3.60
2023-05-15T21:46:43.076Z,2.50
2023-05-15T21:49:05.861Z,3.00
2023-05-15T21:51:39.973Z,3.60
2023-05-15T21:54:13.663Z,4.90
2023-05-15T21:56:48.077Z,2.80
2023-05-15T21:59:22.734Z,2.80
2023-05-15T22:01:45.837Z,3.60
2023-05-15T22:04:19.809Z,3.10
2023-05-15T22:06:58.808Z,3.20
2023-05-15T22:09:32.969Z,3.50
2023-05-15T22:12:07.258Z,4.50
2023-05-15T22:14:54.569Z,3.80
2023-05-15T22:17:26.602Z,2.70
2023-05-15T22:20:08.422Z,3.20
2023-05-15T22:22:46.566Z,2.80
2023-05-15T22:25:21.598Z,2.60
2023-05-15T22:27:55.621Z,2.00
2023-05-15T22:30:29.930Z,2.40
2023-05-15T22:33:02.988Z,2.10
2023-05-15T22:35:38.253Z,2.70
2023-05-15T22:38:12.687Z,2.90
2023-05-15T22:40:46.059Z,1.90
2023-05-15T22:43:20.438Z,1.90
2023-05-15T22:45:55.837Z,1.90
2023-05-15T22:48:30.106Z,3.50
2023-05-15T22:51:03.667Z,4.00
2023-05-15T22:53:39.720Z,2.00
2023-05-15T22:56:15.221Z,2.10
2023-05-15T22:58:49.305Z,3.30
2023-05-15T23:01:23.692Z,2.10
2023-05-15T23:03:57.107Z,1.90
2023-05-15T23:06:35.907Z,2.20
2023-05-15T23:09:10.117Z,2.30
2023-05-15T23:11:44.979Z,1.70
2023-05-15T23:14:18.757Z,1.90
2023-05-15T23:22:29.074Z,2.50
2023-05-15T23:25:03.324Z,2.70
2023-05-15T23:27:36.418Z,2.70
2023-05-15T23:30:13.025Z,3.00
2023-05-15T23:32:46.966Z,3.00
2023-05-15T23:35:24.573Z,2.60
2023-05-15T23:37:58.271Z,2.50
2023-05-15T23:42:42.248Z,3.00
2023-05-15T23:45:18.691Z,2.80
2023-05-15T23:47:54.004Z,2.90
2023-05-15T23:50:28.443Z,2.10
2023-05-15T23:53:03.075Z,1.90
2023-05-15T23:55:38.843Z,3.30
2023-05-15T23:58:13.082Z,2.90
